Time;durP1;ratioP1;P1;durP2;ratioP2;P2;SDS_P1;SDS_P2;PMS_P1;PMS_P2;Temp;Humidity;BMP_temperature;BMP_pressure;BME280_temperature;BME280_humidity;BME280_pressure;Samples;Min_cycle;Max_cycle;Signal;HPM_P1;HPM_P2
2022/12/04 00:00:12;;;;;;;32.87;13.70;;;1.60;99.90;;;;;;5103307;28;20084;-74
2022/12/04 00:02:38;;;;;;;23.30;14.80;;;1.70;99.90;;;;;;5103825;28;20036;-74
2022/12/04 00:05:05;;;;;;;21.10;12.37;;;1.60;99.90;;;;;;5103483;28;20036;-74
2022/12/04 00:07:31;;;;;;;21.00;12.53;;;1.60;99.90;;;;;;5101536;28;20387;-74
2022/12/04 00:09:56;;;;;;;16.73;10.60;;;1.60;99.90;;;;;;5102097;28;20039;-74
2022/12/04 00:12:22;;;;;;;21.07;9.17;;;1.60;99.90;;;;;;5101534;28;20047;-74
2022/12/04 00:14:48;;;;;;;20.53;10.40;;;1.60;99.90;;;;;;5102674;28;20036;-74
2022/12/04 00:17:14;;;;;;;22.83;11.53;;;1.60;99.90;;;;;;5102222;28;20051;-74
2022/12/04 00:19:39;;;;;;;19.47;11.33;;;1.60;99.90;;;;;;5102207;28;20127;-74
2022/12/04 00:22:05;;;;;;;30.73;12.93;;;1.60;99.90;;;;;;5101898;28;20047;-74
2022/12/04 00:24:32;;;;;;;12.17;9.30;;;1.70;99.90;;;;;;5136800;27;20043;-74
2022/12/04 00:26:58;;;;;;;15.70;10.47;;;1.70;99.90;;;;;;5101651;28;20075;-74
2022/12/04 00:29:24;;;;;;;15.33;10.77;;;1.70;99.90;;;;;;5102926;28;20332;-74
2022/12/04 00:31:49;;;;;;;16.03;10.73;;;1.70;99.90;;;;;;5101268;28;20043;-75
2022/12/04 00:34:15;;;;;;;15.20;10.80;;;1.70;99.90;;;;;;5103390;28;20537;-74
2022/12/04 00:36:40;;;;;;;23.20;12.57;;;1.70;99.90;;;;;;5102641;28;20658;-74
2022/12/04 00:39:06;;;;;;;19.00;10.67;;;1.70;99.90;;;;;;5102705;28;20040;-74
2022/12/04 00:41:32;;;;;;;15.33;10.30;;;1.70;99.90;;;;;;5103492;27;20063;-74
2022/12/04 00:43:59;;;;;;;16.03;11.03;;;1.70;99.90;;;;;;5101229;28;20040;-74
2022/12/04 00:46:25;;;;;;;15.40;8.63;;;1.70;99.90;;;;;;5102848;28;20056;-74
2022/12/04 00:48:51;;;;;;;14.70;10.03;;;1.70;99.90;;;;;;5102629;28;20497;-75
2022/12/04 00:51:23;;;;;;;16.67;11.10;;;1.70;99.90;;;;;;5102609;28;20032;-74
2022/12/04 00:53:50;;;;;;;15.93;9.98;;;1.70;99.90;;;;;;5084288;28;20055;-76
2022/12/04 00:56:22;;;;;;;13.10;9.67;;;1.70;99.90;;;;;;5103226;28;20130;-74
2022/12/04 00:58:54;;;;;;;17.95;7.40;;;1.70;99.90;;;;;;5102798;28;20035;-74
2022/12/04 01:01:21;;;;;;;23.13;10.37;;;1.60;99.90;;;;;;5102718;28;20131;-74
2022/12/04 01:03:47;;;;;;;15.50;10.33;;;1.60;99.90;;;;;;5102854;28;20035;-74
2022/12/04 01:06:25;;;;;;;17.37;11.23;;;1.60;99.90;;;;;;5101703;28;20036;-74
2022/12/04 01:08:53;;;;;;;24.80;11.50;;;1.60;99.90;;;;;;5101286;28;20104;-74
2022/12/04 01:11:20;;;;;;;15.87;11.30;;;1.60;99.90;;;;;;5102213;28;20517;-74
2022/12/04 01:13:46;;;;;;;20.20;10.60;;;1.60;99.90;;;;;;5103244;28;20433;-74
2022/12/04 01:16:20;;;;;;;21.30;14.07;;;1.70;99.90;;;;;;5100517;28;20039;-74
2022/12/04 01:18:46;;;;;;;15.27;10.97;;;1.60;99.90;;;;;;5089069;28;20455;-74
2022/12/04 01:21:12;;;;;;;14.80;9.80;;;1.60;99.90;;;;;;5099791;28;20048;-74
2022/12/04 01:23:37;;;;;;;18.03;10.67;;;1.60;99.90;;;;;;5102412;28;20402;-74
2022/12/04 01:26:03;;;;;;;13.30;10.53;;;1.70;99.90;;;;;;5100648;28;20680;-74
2022/12/04 01:28:29;;;;;;;17.43;9.73;;;1.70;99.90;;;;;;5101954;28;20526;-74
2022/12/04 01:31:03;;;;;;;14.67;10.67;;;1.70;99.90;;;;;;5100660;28;20495;-74
2022/12/04 01:33:30;;;;;;;18.40;8.83;;;1.70;99.90;;;;;;5121894;27;20294;-74
2022/12/04 01:35:58;;;;;;;11.17;9.37;;;1.70;99.90;;;;;;5101207;28;20044;-74
2022/12/04 01:38:24;;;;;;;15.17;10.57;;;1.70;99.90;;;;;;5132899;27;20385;-74
2022/12/04 01:40:49;;;;;;;10.10;7.93;;;1.70;99.90;;;;;;5083545;28;20083;-75
2022/12/04 01:43:17;;;;;;;14.97;8.67;;;1.70;99.90;;;;;;5101359;28;20532;-74
2022/12/04 01:45:46;;;;;;;23.97;12.57;;;1.70;99.90;;;;;;5102397;28;20108;-74
2022/12/04 01:48:15;;;;;;;21.10;10.10;;;1.70;99.90;;;;;;5101620;28;20036;-74
2022/12/04 01:50:42;;;;;;;14.07;11.50;;;1.70;99.90;;;;;;5101603;28;20031;-74
2022/12/04 01:53:07;;;;;;;17.20;9.37;;;1.70;99.90;;;;;;5100351;28;20036;-74
2022/12/04 01:55:33;;;;;;;17.30;10.63;;;1.70;99.90;;;;;;5100093;28;20058;-74
2022/12/04 01:58:00;;;;;;;18.50;12.20;;;1.70;99.90;;;;;;5101905;28;20525;-74
2022/12/04 02:00:26;;;;;;;18.80;12.17;;;1.70;99.90;;;;;;5102109;28;20051;-74
2022/12/04 02:02:51;;;;;;;20.07;11.20;;;1.70;99.90;;;;;;5101923;28;20040;-75
2022/12/04 02:05:20;;;;;;;12.10;8.77;;;1.70;99.90;;;;;;5082902;28;20043;-74
2022/12/04 02:07:49;;;;;;;13.10;8.70;;;1.60;99.90;;;;;;5102566;28;20440;-74
2022/12/04 02:10:16;;;;;;;20.20;13.23;;;1.60;99.90;;;;;;5102609;28;20460;-74
2022/12/04 02:12:55;;;;;;;21.70;12.03;;;1.60;99.90;;;;;;5200158;22;20080;-76
2022/12/04 02:15:37;;;;;;;15.20;9.57;;;1.60;99.90;;;;;;5044670;28;20060;-77
2022/12/04 02:18:12;;;;;;;24.42;13.82;;;1.50;99.90;;;;;;5045242;28;20116;-76
2022/12/04 02:20:49;;;;;;;14.43;10.80;;;1.50;99.90;;;;;;5044959;28;20041;-76
2022/12/04 02:24:01;;;;;;;26.53;11.83;;;1.40;99.90;;;;;;5044649;28;20032;-76
2022/12/04 02:26:47;;;;;;;11.93;10.13;;;1.40;99.90;;;;;;5020526;28;20057;-77
2022/12/04 02:29:27;;;;;;;16.77;10.73;;;1.40;99.90;;;;;;5045357;28;20055;-77
2022/12/04 02:32:20;;;;;;;18.90;10.30;;;1.40;99.90;;;;;;5044926;28;20049;-77
2022/12/04 02:34:56;;;;;;;24.17;13.43;;;1.30;99.90;;;;;;5046474;28;20040;-75
2022/12/04 02:37:34;;;;;;;15.63;11.53;;;1.30;99.90;;;;;;5045272;28;20119;-76
2022/12/04 02:40:10;;;;;;;20.27;12.03;;;1.30;99.90;;;;;;5045325;28;20045;-77
2022/12/04 02:42:42;;;;;;;12.90;9.60;;;1.30;99.90;;;;;;5045220;28;20699;-77
2022/12/04 02:45:13;;;;;;;28.45;12.27;;;1.30;99.90;;;;;;5045240;28;20049;-77
2022/12/04 02:47:42;;;;;;;27.83;11.93;;;1.20;99.90;;;;;;5045404;28;20041;-76
2022/12/04 02:50:14;;;;;;;13.63;10.60;;;1.20;99.90;;;;;;5044077;28;20075;-77
2022/12/04 02:53:20;;;;;;;16.92;11.20;;;1.20;99.90;;;;;;5045669;28;20053;-76
2022/12/04 02:55:53;;;;;;;16.93;11.60;;;1.20;99.90;;;;;;5000889;28;20051;-77
2022/12/04 02:58:28;;;;;;;16.90;9.87;;;1.10;99.90;;;;;;5045706;28;20133;-78
2022/12/04 03:00:56;;;;;;;17.00;12.27;;;1.10;99.90;;;;;;5045325;28;20547;-77
2022/12/04 03:03:24;;;;;;;18.13;11.87;;;1.10;99.90;;;;;;5045481;28;20048;-75
2022/12/04 03:06:03;;;;;;;21.73;12.57;;;1.10;99.90;;;;;;5043754;28;20037;-75
2022/12/04 03:08:36;;;;;;;26.47;12.03;;;1.10;99.90;;;;;;5043953;28;20053;-76
2022/12/04 03:11:02;;;;;;;18.83;13.20;;;1.10;99.90;;;;;;5043578;28;20041;-77
2022/12/04 03:13:40;;;;;;;14.63;10.83;;;1.10;99.90;;;;;;5044672;28;20056;-77
2022/12/04 03:16:09;;;;;;;20.13;10.23;;;1.10;99.90;;;;;;5044801;28;20059;-76
2022/12/04 03:18:47;;;;;;;20.53;13.73;;;1.00;99.90;;;;;;5045205;28;20029;-76
2022/12/04 03:21:23;;;;;;;33.17;16.43;;;1.10;99.90;;;;;;5043660;28;20124;-76
2022/12/04 03:24:39;;;;;;;16.93;10.93;;;1.10;99.90;;;;;;5044555;28;20577;-77
2022/12/04 03:27:10;;;;;;;17.97;11.43;;;1.10;99.90;;;;;;4983139;28;20386;-77
2022/12/04 03:30:05;;;;;;;17.40;10.77;;;1.10;99.90;;;;;;5034651;28;20103;-77
2022/12/04 03:32:57;;;;;;;21.93;12.57;;;1.10;99.90;;;;;;5045073;28;20037;-76
2022/12/04 03:35:28;;;;;;;18.27;10.33;;;1.10;99.90;;;;;;5042628;28;20088;-75
2022/12/04 03:38:27;;;;;;;17.73;12.60;;;1.20;99.90;;;;;;5044571;28;20166;-75
2022/12/04 03:41:05;;;;;;;17.50;12.00;;;1.20;99.90;;;;;;5023825;28;20318;-77
2022/12/04 03:43:57;;;;;;;21.07;11.47;;;1.20;99.90;;;;;;5044674;28;20064;-77
2022/12/04 03:46:31;;;;;;;22.23;14.10;;;1.30;99.90;;;;;;5044901;28;20403;-75
2022/12/04 03:49:36;;;;;;;16.83;11.33;;;1.30;99.90;;;;;;5044731;28;20048;-77
2022/12/04 03:52:19;;;;;;;18.57;12.43;;;1.30;99.90;;;;;;5042549;28;20249;-77
2022/12/04 03:55:05;;;;;;;26.10;12.85;;;1.30;99.90;;;;;;5043215;28;20037;-76
2022/12/04 03:57:38;;;;;;;17.23;10.33;;;1.30;99.90;;;;;;5043051;28;20126;-77
2022/12/04 04:00:05;;;;;;;21.65;15.65;;;1.30;99.90;;;;;;5024328;28;20077;-77
2022/12/04 04:02:36;;;;;;;22.23;12.00;;;1.30;99.90;;;;;;5036996;28;20505;-77
2022/12/04 04:05:06;;;;;;;22.33;15.67;;;1.30;99.90;;;;;;5042536;28;20048;-77
2022/12/04 04:07:48;;;;;;;25.87;14.03;;;1.30;99.90;;;;;;5044097;28;20064;-76
2022/12/04 04:10:17;;;;;;;20.97;14.07;;;1.30;99.90;;;;;;5043187;28;20045;-76
2022/12/04 04:24:13;;;;;;;19.17;13.87;;;1.30;99.90;;;;;;5042366;28;20107;-77
2022/12/04 04:24:14;;;;;;;27.07;14.37;;;1.40;99.90;;;;;;5042019;28;20126;-77
2022/12/04 04:26:46;;;;;;;26.93;16.97;;;1.40;99.90;;;;;;5043449;28;20045;-77
2022/12/04 04:29:12;;;;;;;19.63;15.07;;;1.40;99.90;;;;;;5042567;28;20558;-77
2022/12/04 04:31:58;;;;;;;15.23;11.63;;;1.30;99.90;;;;;;5044088;28;20219;-75
2022/12/04 04:34:38;;;;;;;23.20;13.50;;;1.30;99.90;;;;;;5042559;28;20128;-77
2022/12/04 04:37:33;;;;;;;21.20;14.70;;;1.30;99.90;;;;;;5040236;28;20080;-76
2022/12/04 04:40:10;;;;;;;17.63;13.23;;;1.30;99.90;;;;;;5040891;28;20053;-77
2022/12/04 04:43:14;;;;;;;20.30;13.53;;;1.30;99.90;;;;;;5043709;28;20044;-77
2022/12/04 04:46:04;;;;;;;16.63;13.23;;;1.40;99.90;;;;;;5040432;28;20053;-76
2022/12/04 04:48:51;;;;;;;24.03;16.83;;;1.40;99.90;;;;;;5042717;28;20114;-77
2022/12/04 04:51:18;;;;;;;27.97;17.17;;;1.30;99.90;;;;;;5041797;28;20083;-76
2022/12/04 04:53:54;;;;;;;27.27;14.03;;;1.40;99.90;;;;;;5042214;28;20506;-77
2022/12/04 04:56:20;;;;;;;31.17;17.30;;;1.40;99.90;;;;;;5042420;28;20091;-79
2022/12/04 04:58:47;;;;;;;29.53;16.33;;;1.40;99.90;;;;;;5043860;28;20128;-77
2022/12/04 05:01:16;;;;;;;29.73;16.13;;;1.40;99.90;;;;;;5043250;28;20119;-77
2022/12/04 05:03:42;;;;;;;25.30;16.67;;;1.40;99.90;;;;;;5041595;28;20077;-78
2022/12/04 05:06:08;;;;;;;26.87;14.57;;;1.40;99.90;;;;;;5041551;28;20073;-75
2022/12/04 05:08:34;;;;;;;31.77;16.57;;;1.40;99.90;;;;;;5043480;28;20037;-77
2022/12/04 05:11:00;;;;;;;21.87;16.30;;;1.40;99.90;;;;;;5042823;28;20033;-77
2022/12/04 05:13:27;;;;;;;26.10;15.93;;;1.40;99.90;;;;;;5042797;28;20079;-76
2022/12/04 05:16:00;;;;;;;24.60;13.93;;;1.40;99.90;;;;;;5042616;28;20095;-77
2022/12/04 05:18:26;;;;;;;24.38;14.75;;;1.40;99.90;;;;;;5042717;28;20040;-77
2022/12/04 05:20:52;;;;;;;29.43;15.03;;;1.40;99.90;;;;;;5042219;28;20494;-76
2022/12/04 05:23:18;;;;;;;21.77;17.23;;;1.40;99.90;;;;;;5043254;28;20084;-78
2022/12/04 05:25:43;;;;;;;23.27;15.40;;;1.40;99.90;;;;;;5042524;28;20056;-75
2022/12/04 05:28:09;;;;;;;31.90;18.47;;;1.40;99.90;;;;;;5041277;28;20172;-78
2022/12/04 05:30:34;;;;;;;26.23;16.40;;;1.40;99.90;;;;;;5042957;28;20045;-75
2022/12/04 05:33:00;;;;;;;29.50;17.57;;;1.40;99.90;;;;;;5042837;28;20044;-78
2022/12/04 05:35:26;;;;;;;29.03;17.40;;;1.40;99.90;;;;;;5041743;28;20491;-75
2022/12/04 05:37:51;;;;;;;34.10;20.90;;;1.40;99.90;;;;;;5041772;28;20048;-76
2022/12/04 05:40:17;;;;;;;30.10;17.47;;;1.40;99.90;;;;;;5042846;28;20183;-77
2022/12/04 05:42:42;;;;;;;21.30;16.10;;;1.40;99.90;;;;;;5025525;28;20037;-77
2022/12/04 05:45:08;;;;;;;31.63;19.13;;;1.40;99.90;;;;;;5042520;28;20045;-75
2022/12/04 05:47:42;;;;;;;19.63;15.10;;;1.40;99.90;;;;;;5043069;28;20037;-76
2022/12/04 05:50:10;;;;;;;30.90;16.57;;;1.40;99.90;;;;;;5045789;28;20072;-76
2022/12/04 05:52:35;;;;;;;29.97;18.17;;;1.40;99.90;;;;;;5045392;28;20102;-78
2022/12/04 05:55:01;;;;;;;29.87;16.73;;;1.40;99.90;;;;;;5046433;28;20442;-75
2022/12/04 05:57:27;;;;;;;31.80;15.80;;;1.40;99.90;;;;;;5046750;28;20048;-77
2022/12/04 05:59:53;;;;;;;33.63;19.17;;;1.40;99.90;;;;;;5046116;28;20044;-76
2022/12/04 06:02:19;;;;;;;28.37;19.00;;;1.40;99.90;;;;;;5047063;28;20047;-75
2022/12/04 06:04:44;;;;;;;26.30;13.10;;;1.40;99.90;;;;;;5045914;28;20124;-77
2022/12/04 06:07:10;;;;;;;32.00;16.93;;;1.40;99.90;;;;;;5046142;28;20551;-77
2022/12/04 06:09:36;;;;;;;22.03;15.87;;;1.40;99.90;;;;;;5046140;28;20041;-77
2022/12/04 06:12:02;;;;;;;30.10;18.60;;;1.30;99.90;;;;;;5046251;28;20033;-76
2022/12/04 06:14:28;;;;;;;26.97;18.53;;;1.40;99.90;;;;;;5045938;28;20057;-78
2022/12/04 06:16:53;;;;;;;31.70;16.07;;;1.30;99.90;;;;;;5045916;28;20048;-76
2022/12/04 06:19:20;;;;;;;27.73;15.73;;;1.30;99.90;;;;;;5045890;28;20079;-78
2022/12/04 06:21:48;;;;;;;34.73;18.63;;;1.30;99.90;;;;;;5045251;28;20550;-76
2022/12/04 06:24:16;;;;;;;33.30;18.00;;;1.30;99.90;;;;;;5046531;28;20041;-78
2022/12/04 06:26:42;;;;;;;29.97;18.03;;;1.30;99.90;;;;;;5046118;28;20040;-77
2022/12/04 06:29:09;;;;;;;25.03;16.77;;;1.30;99.90;;;;;;5045518;28;20383;-75
2022/12/04 06:31:36;;;;;;;28.23;16.47;;;1.30;99.90;;;;;;5045740;28;20504;-78
2022/12/04 06:34:03;;;;;;;26.57;18.10;;;1.30;99.90;;;;;;5044926;28;20510;-76
2022/12/04 06:36:29;;;;;;;37.77;21.97;;;1.30;99.90;;;;;;5044825;28;20040;-77
2022/12/04 06:38:56;;;;;;;33.40;19.90;;;1.30;99.90;;;;;;5045031;28;20068;-78
2022/12/04 06:41:22;;;;;;;30.47;18.60;;;1.30;99.90;;;;;;5044319;28;20052;-76
2022/12/04 06:43:49;;;;;;;18.93;15.33;;;1.30;99.90;;;;;;5044878;28;20823;-77
2022/12/04 06:46:19;;;;;;;27.67;15.77;;;1.30;99.90;;;;;;5044595;28;20043;-75
2022/12/04 06:48:45;;;;;;;30.30;18.17;;;1.30;99.90;;;;;;5028594;28;20048;-76
2022/12/04 06:51:26;;;;;;;33.53;17.57;;;1.30;99.90;;;;;;5044171;28;20033;-77
2022/12/04 06:53:52;;;;;;;25.33;16.90;;;1.30;99.90;;;;;;5043951;28;20321;-76
2022/12/04 06:56:20;;;;;;;23.03;15.57;;;1.30;99.90;;;;;;5045983;28;20049;-77
2022/12/04 06:58:47;;;;;;;26.77;17.87;;;1.30;99.90;;;;;;5044022;28;20059;-75
2022/12/04 07:01:15;;;;;;;26.00;16.43;;;1.30;99.90;;;;;;5044737;28;20040;-78
2022/12/04 07:03:41;;;;;;;34.67;20.97;;;1.30;99.90;;;;;;5045545;28;20115;-77
2022/12/04 07:06:34;;;;;;;28.90;15.57;;;1.30;99.90;;;;;;5043470;28;20045;-76
2022/12/04 07:09:13;;;;;;;31.43;12.37;;;1.30;99.90;;;;;;5041484;28;20128;-74
2022/12/04 07:11:40;;;;;;;25.70;15.80;;;1.30;99.90;;;;;;5025281;28;20072;-77
2022/12/04 07:14:06;;;;;;;25.83;17.07;;;1.30;99.90;;;;;;5043182;28;20491;-75
2022/12/04 07:16:32;;;;;;;31.97;16.30;;;1.30;99.90;;;;;;5044791;28;20064;-77
2022/12/04 07:18:57;;;;;;;25.20;15.97;;;1.30;99.90;;;;;;5044313;28;20527;-77
2022/12/04 07:21:25;;;;;;;17.67;13.77;;;1.30;99.90;;;;;;5044107;28;20044;-76
2022/12/04 07:23:56;;;;;;;24.87;16.47;;;1.40;99.90;;;;;;5026351;28;20068;-77
2022/12/04 07:26:23;;;;;;;26.50;14.50;;;1.40;99.90;;;;;;5044674;28;20556;-77
2022/12/04 07:28:49;;;;;;;19.20;12.37;;;1.40;99.90;;;;;;5045125;28;20055;-77
2022/12/04 07:31:20;;;;;;;19.43;16.23;;;1.40;99.90;;;;;;5044950;28;20045;-78
2022/12/04 07:33:46;;;;;;;26.13;16.77;;;1.40;99.90;;;;;;5045133;28;20308;-77
2022/12/04 07:36:15;;;;;;;25.90;14.57;;;1.40;99.90;;;;;;5043456;28;20094;-77
2022/12/04 07:38:41;;;;;;;24.77;17.17;;;1.40;99.90;;;;;;5044976;28;20445;-77
2022/12/04 07:41:08;;;;;;;19.63;14.20;;;1.40;99.90;;;;;;5044122;28;20049;-75
2022/12/04 07:43:34;;;;;;;24.03;15.10;;;1.40;99.90;;;;;;5044820;28;20091;-78
2022/12/04 07:46:04;;;;;;;28.70;16.37;;;1.40;99.90;;;;;;5044031;28;20072;-77
2022/12/04 07:48:30;;;;;;;27.27;15.67;;;1.40;99.90;;;;;;5043911;28;20502;-76
2022/12/04 07:51:13;;;;;;;31.57;15.50;;;1.40;99.90;;;;;;5043618;28;20051;-78
2022/12/04 07:53:39;;;;;;;26.13;17.23;;;1.40;99.90;;;;;;5043963;28;20124;-77
2022/12/04 07:56:06;;;;;;;33.70;18.93;;;1.40;99.90;;;;;;5043800;28;20091;-76
2022/12/04 07:58:32;;;;;;;30.33;17.60;;;1.40;99.90;;;;;;5043086;28;20037;-78
2022/12/04 08:01:24;;;;;;;30.13;15.10;;;1.40;99.90;;;;;;5026220;28;20037;-76
2022/12/04 08:03:53;;;;;;;26.95;17.48;;;1.50;99.90;;;;;;5041172;28;20053;-76
2022/12/04 08:06:20;;;;;;;23.77;17.27;;;1.50;99.90;;;;;;5043548;28;20040;-77
2022/12/04 08:08:47;;;;;;;28.70;16.53;;;1.50;99.90;;;;;;5043054;28;20068;-79
2022/12/04 08:11:17;;;;;;;25.97;15.93;;;1.50;99.90;;;;;;5043115;28;20570;-76
2022/12/04 08:13:44;;;;;;;22.13;15.20;;;1.50;99.90;;;;;;5043726;28;20491;-78
2022/12/04 08:16:10;;;;;;;23.43;16.07;;;1.50;99.90;;;;;;5043715;28;20053;-78
2022/12/04 08:18:36;;;;;;;25.20;16.73;;;1.50;99.90;;;;;;5043605;28;20033;-76
2022/12/04 08:21:08;;;;;;;28.13;17.57;;;1.50;99.90;;;;;;5042772;28;20041;-75
2022/12/04 08:23:35;;;;;;;28.30;16.38;;;1.50;99.90;;;;;;5042230;28;20069;-78
2022/12/04 08:26:01;;;;;;;22.77;17.77;;;1.50;99.90;;;;;;5046808;28;20098;-76
2022/12/04 08:28:27;;;;;;;30.87;16.83;;;1.50;99.90;;;;;;5062276;28;20040;-78
2022/12/04 08:30:53;;;;;;;26.33;17.40;;;1.50;99.90;;;;;;5052557;28;20093;-75
2022/12/04 08:33:19;;;;;;;30.27;17.07;;;1.50;99.90;;;;;;5035766;28;20045;-77
2022/12/04 08:35:44;;;;;;;31.40;16.50;;;1.50;99.90;;;;;;5016226;28;20056;-75
2022/12/04 08:38:10;;;;;;;32.10;18.67;;;1.50;99.90;;;;;;5018241;28;20174;-76
2022/12/04 08:40:35;;;;;;;22.37;15.47;;;1.50;99.90;;;;;;5033979;28;20037;-74
2022/12/04 08:43:01;;;;;;;31.17;19.20;;;1.50;99.90;;;;;;5057345;28;20497;-76
2022/12/04 08:45:26;;;;;;;31.03;17.40;;;1.50;99.90;;;;;;5049404;28;20064;-76
2022/12/04 08:47:52;;;;;;;23.50;14.97;;;1.50;99.90;;;;;;5041766;28;20118;-75
2022/12/04 08:50:18;;;;;;;23.47;15.53;;;1.50;99.90;;;;;;5041447;28;20479;-76
2022/12/04 08:52:43;;;;;;;27.83;17.50;;;1.60;99.90;;;;;;5042319;28;20123;-72
2022/12/04 08:55:09;;;;;;;54.40;16.53;;;1.60;99.90;;;;;;5042387;28;20049;-74
2022/12/04 08:57:35;;;;;;;24.53;14.90;;;1.60;99.90;;;;;;5042138;28;20407;-74
2022/12/04 09:00:00;;;;;;;34.77;19.10;;;1.60;99.90;;;;;;5043120;28;20670;-76
2022/12/04 09:02:26;;;;;;;27.43;17.57;;;1.60;99.90;;;;;;5057115;28;20052;-76
2022/12/04 09:04:52;;;;;;;31.00;19.20;;;1.60;99.90;;;;;;5061062;28;20033;-76
2022/12/04 09:07:17;;;;;;;18.70;14.63;;;1.70;99.90;;;;;;5042709;28;20048;-71
2022/12/04 09:09:43;;;;;;;36.10;18.23;;;1.70;99.90;;;;;;5041280;28;20060;-78
2022/12/04 09:12:08;;;;;;;28.03;15.90;;;1.70;99.90;;;;;;5042225;28;20045;-74
2022/12/04 09:14:35;;;;;;;25.60;19.87;;;1.70;99.90;;;;;;5043114;28;20049;-77
2022/12/04 09:17:01;;;;;;;31.27;18.60;;;1.70;99.90;;;;;;5040437;28;20037;-75
2022/12/04 09:19:27;;;;;;;32.20;21.00;;;1.70;99.90;;;;;;5042515;28;20090;-78
2022/12/04 09:21:53;;;;;;;32.70;18.47;;;1.70;99.90;;;;;;5042430;28;20138;-76
2022/12/04 09:24:19;;;;;;;31.83;19.17;;;1.70;99.90;;;;;;5046033;28;20048;-75
2022/12/04 09:26:44;;;;;;;29.27;16.70;;;1.70;99.90;;;;;;5047287;28;20041;-76
2022/12/04 09:29:11;;;;;;;26.43;17.67;;;1.70;99.90;;;;;;5046474;28;20116;-73
2022/12/04 09:31:37;;;;;;;30.57;17.30;;;1.70;99.90;;;;;;5045696;28;20053;-77
2022/12/04 09:34:05;;;;;;;27.47;17.37;;;1.70;99.90;;;;;;5044182;28;20048;-75
2022/12/04 09:36:30;;;;;;;26.13;17.07;;;1.80;99.90;;;;;;5047003;28;20079;-73
2022/12/04 09:38:56;;;;;;;24.60;14.87;;;1.80;99.90;;;;;;5045244;28;21513;-76
2022/12/04 09:41:47;;;;;;;30.20;17.07;;;1.80;99.90;;;;;;5058305;28;20037;-78
2022/12/04 09:44:22;;;;;;;31.57;17.23;;;1.80;99.90;;;;;;5046089;28;20076;-78
2022/12/04 09:47:00;;;;;;;27.57;15.80;;;1.80;99.90;;;;;;5048277;28;20037;-77
2022/12/04 09:49:35;;;;;;;24.30;16.83;;;1.80;99.90;;;;;;5036846;28;20045;-76
2022/12/04 09:52:06;;;;;;;19.73;15.93;;;1.80;99.90;;;;;;5041687;28;20041;-76
2022/12/04 09:54:41;;;;;;;42.40;18.03;;;1.90;99.90;;;;;;5045705;28;20372;-74
2022/12/04 09:57:28;;;;;;;36.10;18.23;;;1.90;99.90;;;;;;5027612;28;20045;-73
2022/12/04 09:59:53;;;;;;;17.23;13.93;;;1.90;99.90;;;;;;5078481;28;20045;-75
2022/12/04 10:02:35;;;;;;;28.43;17.77;;;1.90;99.90;;;;;;5046700;28;20423;-74
2022/12/04 10:05:01;;;;;;;23.98;16.10;;;1.90;99.90;;;;;;5043800;28;20120;-74
2022/12/04 10:08:18;;;;;;;31.57;21.37;;;1.90;99.90;;;;;;5045620;28;20052;-78
2022/12/04 10:10:54;;;;;;;27.57;17.63;;;2.00;99.90;;;;;;5021590;28;20054;-77
2022/12/04 10:13:58;;;;;;;21.37;15.17;;;1.90;99.90;;;;;;5034331;28;20531;-71
2022/12/04 10:16:52;;;;;;;25.57;13.47;;;2.00;99.90;;;;;;5044460;28;20045;-76
2022/12/04 10:19:37;;;;;;;25.83;15.03;;;2.00;99.90;;;;;;5028069;28;20093;-75
2022/12/04 10:22:14;;;;;;;20.53;14.83;;;2.10;99.90;;;;;;5045683;28;20076;-74
2022/12/04 10:24:53;;;;;;;26.10;17.77;;;2.10;99.90;;;;;;5044816;28;20218;-76
2022/12/04 10:27:35;;;;;;;20.90;13.97;;;2.10;99.90;;;;;;5058255;28;20101;-76
2022/12/04 10:30:14;;;;;;;28.70;18.50;;;2.10;99.90;;;;;;5047586;28;20408;-78
2022/12/04 10:32:43;;;;;;;24.13;14.67;;;2.10;99.90;;;;;;5040291;28;20116;-76
2022/12/04 10:35:20;;;;;;;21.97;15.57;;;2.10;99.90;;;;;;5043643;28;20526;-80
2022/12/04 10:37:50;;;;;;;25.87;14.63;;;2.10;99.90;;;;;;5051826;28;20064;-77
2022/12/04 10:40:20;;;;;;;19.83;13.93;;;2.20;99.90;;;;;;5054598;28;20044;-79
2022/12/04 10:43:16;;;;;;;18.33;14.00;;;2.20;99.90;;;;;;5044525;28;20502;-78
2022/12/04 10:45:42;;;;;;;23.37;14.47;;;2.20;99.90;;;;;;5036138;28;20048;-77
2022/12/04 10:48:22;;;;;;;24.90;14.03;;;2.20;99.90;;;;;;5043740;28;20557;-78
2022/12/04 10:50:47;;;;;;;33.83;16.77;;;2.20;99.90;;;;;;5059935;28;20029;-81
2022/12/04 10:53:15;;;;;;;18.97;11.70;;;2.30;99.90;;;;;;5055624;28;20553;-79
2022/12/04 10:55:41;;;;;;;28.03;15.13;;;2.30;99.90;;;;;;5043820;28;20041;-77
2022/12/04 10:58:17;;;;;;;28.90;15.10;;;2.30;99.90;;;;;;5053328;28;20086;-75
2022/12/04 11:00:45;;;;;;;21.90;13.40;;;2.40;99.90;;;;;;5050038;28;20052;-75
2022/12/04 11:03:25;;;;;;;27.57;14.20;;;2.40;99.90;;;;;;5051643;28;20727;-75
2022/12/04 11:06:04;;;;;;;21.73;11.67;;;2.40;99.90;;;;;;5062872;28;20037;-79
2022/12/04 11:08:41;;;;;;;14.00;11.10;;;2.40;99.90;;;;;;5044963;28;20044;-74
2022/12/04 11:11:10;;;;;;;25.90;15.90;;;2.50;99.90;;;;;;5046718;28;20040;-75
2022/12/04 11:13:36;;;;;;;19.77;11.27;;;2.50;99.90;;;;;;5049191;28;20049;-77
2022/12/04 11:16:03;;;;;;;17.60;10.57;;;2.50;99.90;;;;;;5044358;28;20049;-73
2022/12/04 11:18:31;;;;;;;15.43;10.83;;;2.60;99.90;;;;;;5044881;28;20044;-77
2022/12/04 11:21:01;;;;;;;23.03;10.17;;;2.60;99.90;;;;;;5048586;28;20085;-79
2022/12/04 11:23:49;;;;;;;19.80;11.20;;;2.60;99.90;;;;;;5044563;28;20052;-79
2022/12/04 11:26:17;;;;;;;18.53;14.20;;;2.60;99.90;;;;;;5026723;28;20045;-79
2022/12/04 11:28:52;;;;;;;18.43;14.40;;;2.70;99.90;;;;;;5052638;28;20045;-75
2022/12/04 11:31:20;;;;;;;17.80;11.80;;;2.70;99.90;;;;;;5056246;28;20048;-78
2022/12/04 11:33:47;;;;;;;17.30;10.70;;;2.70;99.90;;;;;;5047721;28;20132;-78
2022/12/04 11:36:26;;;;;;;12.83;10.10;;;2.70;99.90;;;;;;5040002;28;21699;-80
2022/12/04 11:39:03;;;;;;;13.43;9.70;;;2.70;99.90;;;;;;5046488;28;20080;-82
2022/12/04 11:41:30;;;;;;;24.53;11.67;;;2.70;99.90;;;;;;5043623;28;20055;-85
2022/12/04 11:43:57;;;;;;;18.17;10.83;;;2.80;99.90;;;;;;5056977;28;20106;-82
2022/12/04 11:46:25;;;;;;;20.33;11.77;;;2.80;99.90;;;;;;5075315;28;20133;-76
2022/12/04 11:48:51;;;;;;;17.43;9.83;;;2.80;99.90;;;;;;5042225;28;20064;-78
2022/12/04 11:51:42;;;;;;;13.30;9.23;;;2.80;99.90;;;;;;5043803;28;20603;-76
2022/12/04 11:54:34;;;;;;;12.80;9.73;;;2.80;99.90;;;;;;5057769;28;20731;-83
2022/12/04 11:57:16;;;;;;;12.70;8.00;;;2.80;99.90;;;;;;5041711;28;20095;-83
2022/12/04 12:00:00;;;;;;;19.30;9.70;;;2.80;99.90;;;;;;5043166;28;20114;-77
2022/12/04 12:02:42;;;;;;;10.83;8.53;;;2.80;99.90;;;;;;5024110;28;20049;-80
2022/12/04 12:05:23;;;;;;;;;;;2.80;99.90;;;;;;5053587;28;20122;-79
2022/12/04 12:08:07;;;;;;;15.48;9.07;;;2.90;99.90;;;;;;5042613;28;19927;-78
2022/12/04 12:10:41;;;;;;;9.43;7.83;;;2.90;99.90;;;;;;5043548;28;20199;-81
2022/12/04 12:13:22;;;;;;;15.77;8.60;;;2.90;99.90;;;;;;5037063;28;20064;-78
2022/12/04 12:16:11;;;;;;;8.87;6.27;;;2.90;99.90;;;;;;5040667;28;20048;-80
2022/12/04 12:18:53;;;;;;;11.40;6.97;;;2.90;99.90;;;;;;5038118;28;20049;-80
2022/12/04 12:21:19;;;;;;;;;;;2.90;99.90;;;;;;5043979;28;20056;-77
2022/12/04 12:23:59;;;;;;;8.97;7.53;;;2.90;99.90;;;;;;5075554;28;19965;-82
2022/12/04 12:26:59;;;;;;;14.53;8.20;;;2.90;99.90;;;;;;5040416;28;20557;-82
2022/12/04 12:29:36;;;;;;;7.73;6.80;;;2.90;99.90;;;;;;5042719;28;20092;-82
2022/12/04 12:32:18;;;;;;;12.68;7.32;;;2.90;99.90;;;;;;5036332;28;20052;-81
2022/12/04 12:34:45;;;;;;;12.60;6.22;;;2.90;99.90;;;;;;5041427;28;20516;-76
2022/12/04 12:37:26;;;;;;;15.50;8.13;;;2.90;99.90;;;;;;5039187;28;20044;-73
2022/12/04 12:40:06;;;;;;;8.57;6.37;;;2.90;99.90;;;;;;5043250;28;20041;-73
2022/12/04 12:42:39;;;;;;;9.97;9.07;;;2.90;99.90;;;;;;5043060;28;20295;-77
2022/12/04 12:45:27;;;;;;;;;;;2.90;99.90;;;;;;5044115;28;20499;-80
2022/12/04 12:47:57;;;;;;;14.17;7.67;;;2.90;99.90;;;;;;5039772;28;19974;-78
2022/12/04 12:50:43;;;;;;;13.80;8.00;;;2.90;99.90;;;;;;5039936;28;20514;-74
2022/12/04 12:53:15;;;;;;;8.80;6.28;;;2.90;99.90;;;;;;5039021;28;20546;-79
2022/12/04 12:55:48;;;;;;;7.82;5.93;;;2.90;99.90;;;;;;5032928;28;20041;-77
2022/12/04 12:58:28;;;;;;;13.03;7.87;;;2.90;99.90;;;;;;5041678;28;20064;-80
2022/12/04 13:01:15;;;;;;;7.83;6.93;;;2.90;99.90;;;;;;5041627;28;20041;-75
2022/12/04 13:03:40;;;;;;;7.50;6.40;;;2.90;99.90;;;;;;5039923;28;20053;-79
2022/12/04 13:06:13;;;;;;;12.93;7.07;;;3.00;99.90;;;;;;5042156;28;20617;-80
2022/12/04 13:08:58;;;;;;;12.20;8.90;;;3.00;99.90;;;;;;5043052;28;20426;-79
2022/12/04 13:11:26;;;;;;;11.23;7.10;;;3.00;99.90;;;;;;5028345;28;20395;-79
2022/12/04 13:13:59;;;;;;;16.98;9.75;;;3.00;99.90;;;;;;5040757;28;20052;-88